ENT weather

Public forecast

Using degrees Celsius for public forecast. Weather courtesy of forecast.io.

Closest aviation weather report (METAR) to Eniwetok Airport

Closest report is Bucholz Army Air Field, 356.1 nm (659.5 km) ESE. Retrieved 2020/08/11 22:00 UTC (3 minutes ago):

PKWA 112200Z AUTO 04019G25KT 5SM RA SCT020 BKN070 OVC085 29/25 A2989 RMK AO2 P0001 T02870252

Closest aviation forecast (TAF) to Eniwetok Airport

Closest forecast is Bucholz Army Air Field, 356.1 nm (659.5 km) ESE. Retrieved 2020/08/11 20:15 UTC (2 hours ago):

TAF PKWA 112007Z 1120/1218 08015KT P6SM VCSH SCT020 SCT040 BKN100 TEMPO 1121/1201 09015G25KT 4SM SHRA BKN018 FM120200 13011KT P6SM VCSH SCT018 BKN100